Brangus — WDB4516 — position and weather

sailwx.info

Track history (hours):
 
Tides and Currents Weather Stations Pressure Air Temp Water Temp Dewpoint Dewpoint Depression Visibility Wind Speed Wind Dir Waves Ship Positions

Brangus

Owner: Great Lakes Dredge & Dock Company, Oak Brook, IL. More information available from US FCC via Universal Licensing System and Coast Guard Vessel Documentation Center.

Last reported at 2017-May-24 07:13 UTC. Time now 2017-May-24 07:57 UTC.
Position N 38°57' W 074°53'.

; draft 3 m.

MMSI: 366899270.

Date/timePositionNaut miles runAvg speedWind from/ knotsBaromVisibWave heightAir tempDewpointWater temp
2017-May-24 07:13N 38°57' W 074°53'0 0.1
2017-May-24 06:56N 38°57' W 074°53'0 0.5
2017-May-24 06:24N 38°57' W 074°53'4 3.0
2017-May-24 05:03N 38°58' W 074°48'1 5.5
2017-May-24 04:55N 38°59' W 074°47'2 5.5
2017-May-24 04:30N 39°00' W 074°45'6 4.7
2017-May-24 03:19N 39°06' W 074°42'0 0.4
2017-May-24 03:01N 39°05' W 074°42'0 0.3
2017-May-24 02:25N 39°06' W 074°42'0 0.2
2017-May-24 01:43N 39°06' W 074°42'0 0.1
2017-May-24 01:30N 39°06' W 074°42'12 0.8
2017-May-23 10:32N 38°56' W 074°51'2 0.7
2017-May-23 08:12N 38°57' W 074°53'0 0.2
2017-May-23 07:57N 38°57' W 074°52'  
2017-May-20 05:02N 38°57' W 074°53'0 0.0
2017-May-20 04:57N 38°57' W 074°53'0 0.0
2017-May-20 04:30N 38°57' W 074°53'0 0.0
2017-May-20 04:00N 38°57' W 074°53'0 0.0
2017-May-20 03:28N 38°57' W 074°53'0 0.0
2017-May-20 01:05N 38°57' W 074°53'0 0.0
2017-May-20 01:00N 38°57' W 074°53'0 0.0
2017-May-20 00:30N 38°57' W 074°53'0 0.0
2017-May-19 23:53N 38°57' W 074°53'1 0.1
2017-May-19 12:20N 38°57' W 074°52'0 1.1
2017-May-19 12:00N 38°57' W 074°53'0 0.4
2017-May-19 11:21N 38°57' W 074°53'17 1.0
2017-May-18 18:51N 39°06' W 075°12'1 3.1
2017-May-18 18:27N 39°07' W 075°13'1 3.2
2017-May-18 17:59N 39°08' W 075°14'2 3.2
2017-May-18 17:30N 39°09' W 075°15'2 3.1
2017-May-18 17:00N 39°10' W 075°16'1 2.9
2017-May-18 16:30N 39°12' W 075°17'2 3.9
2017-May-18 16:00N 39°13' W 075°18'2 4.9
2017-May-18 15:30N 39°15' W 075°20'3 5.8
2017-May-18 15:00N 39°17' W 075°23'7 6.6
2017-May-18 14:00N 39°22' W 075°28'3 6.6
2017-May-18 13:30N 39°25' W 075°31'3 6.3
2017-May-18 13:00N 39°27' W 075°34'3 6.0
2017-May-18 12:30N 39°30' W 075°34'3 5.9
2017-May-18 12:00N 39°33' W 075°33'3 5.1
2017-May-18 11:30N 39°36' W 075°34'2 4.6
2017-May-18 11:00N 39°38' W 075°35'2 4.0
2017-May-18 10:30N 39°39' W 075°33'2 3.4
2017-May-18 10:00N 39°41' W 075°32'1 2.7
2017-May-18 09:30N 39°42' W 075°31'1 2.5
2017-May-18 09:00N 39°43' W 075°30'1 2.3
2017-May-18 08:30N 39°44' W 075°30'1 2.0
2017-May-18 07:56N 39°45' W 075°29'1 2.0
2017-May-18 07:30N 39°46' W 075°29'1 2.2
2017-May-18 07:00N 39°47' W 075°28'1 2.5
2017-May-18 06:30N 39°48' W 075°27'2 3.0
2017-May-18 06:00N 39°48' W 075°25'2 3.6
2017-May-18 05:31N 39°49' W 075°23'2 4.5
2017-May-18 05:00N 39°51' W 075°21'2 4.3
2017-May-18 04:30N 39°51' W 075°18'2 4.2
2017-May-18 04:00N 39°51' W 075°15'0 0.3
2017-May-18 03:30N 39°51' W 075°15'0 0.0
2017-May-18 03:00N 39°51' W 075°15'0 0.0
2017-May-18 02:30N 39°51' W 075°15'0 0.0
2017-May-18 02:00N 39°51' W 075°15'0 0.0
2017-May-18 01:30N 39°51' W 075°15'0 0.0
2017-May-18 01:00N 39°51' W 075°15'0 0.0
2017-May-18 00:30N 39°51' W 075°15'0 0.0
2017-May-18 00:00N 39°51' W 075°15'0 0.0
2017-May-17 23:30N 39°51' W 075°15'0 0.0
2017-May-17 23:00N 39°51' W 075°15'0 0.0
2017-May-17 22:30N 39°51' W 075°15'0 0.0
2017-May-17 22:00N 39°51' W 075°15'0 0.0
2017-May-17 21:30N 39°51' W 075°15'0 0.0
2017-May-17 21:00N 39°51' W 075°15'0 0.0
2017-May-17 20:30N 39°51' W 075°15'0 0.0
2017-May-17 20:00N 39°51' W 075°15'0 0.0
2017-May-17 19:30N 39°51' W 075°15'0 0.0
2017-May-17 18:58N 39°51' W 075°15'0 0.0
2017-May-17 18:30N 39°51' W 075°15'0 0.0
2017-May-17 18:00N 39°51' W 075°15'0 0.1
2017-May-17 17:30N 39°51' W 075°15'1 1.5
2017-May-17 17:00N 39°52' W 075°14'1 1.3
2017-May-17 16:30N 39°51' W 075°15'0 0.7
2017-May-17 16:00N 39°51' W 075°15'1 2.5
2017-May-17 15:30N 39°52' W 075°13'1 1.7
2017-May-17 15:00N 39°51' W 075°14'1 1.9
2017-May-17 14:30N 39°51' W 075°15'2 2.2
2017-May-17 13:30N 39°51' W 075°18'2 3.0
2017-May-17 13:01N 39°51' W 075°20'1 2.8
2017-May-17 12:30N 39°50' W 075°22'1 2.3
2017-May-17 12:00N 39°49' W 075°23'1 2.7
2017-May-17 11:30N 39°49' W 075°24'2 3.6
2017-May-17 11:01N 39°48' W 075°26'2 3.4
2017-May-17 10:30N 39°46' W 075°28'2 3.2
2017-May-17 10:00N 39°45' W 075°29'2 4.6
2017-May-17 09:31N 39°43' W 075°30'3 5.1
2017-May-17 09:00N 39°41' W 075°31'3 5.1
2017-May-17 08:30N 39°39' W 075°33'3 5.1
2017-May-17 08:00N 39°36' W 075°34'3 6.5
2017-May-17 07:30N 39°33' W 075°33'4 7.0
2017-May-17 07:00N 39°30' W 075°33'3 6.6
2017-May-17 06:30N 39°27' W 075°32'3 6.8
2017-May-17 06:00N 39°24' W 075°29'3 6.6
2017-May-17 05:30N 39°22' W 075°27'3 6.6
2017-May-17 05:00N 39°19' W 075°24'3 6.5
2017-May-17 04:30N 39°17' W 075°21'3 5.9
2017-May-17 04:00N 39°14' W 075°19'3 5.7
2017-May-17 03:29N 39°12' W 075°17'3 5.8
2017-May-17 02:59N 39°09' W 075°15'5 5.8
2017-May-17 02:03N 39°05' W 075°11'17 1.2
2017-May-16 12:23N 38°56' W 074°52'1 1.5
2017-May-16 11:59N 38°57' W 074°52'1 0.6
2017-May-16 10:47N 38°57' W 074°52'1 0.0
2017-May-14 13:39N 38°57' W 074°53'  
Track history (hours):
 
Tides and Currents Weather Stations Pressure Air Temp Water Temp Dewpoint Dewpoint Depression Visibility Wind Speed Wind Dir Waves Ship Positions

Brangus

Owner: Great Lakes Dredge & Dock Company, Oak Brook, IL. More information available from US FCC via Universal Licensing System and Coast Guard Vessel Documentation Center.

Last reported at 2017-May-24 07:13 UTC. Time now 2017-May-24 07:57 UTC.
Position N 38°57' W 074°53'.

; draft 3 m.

MMSI: 366899270.

Date/timePositionNaut miles runAvg speedWind from/ knotsBaromVisibWave heightAir tempDewpointWater temp
2017-May-24 07:13N 38°57' W 074°53'0 0.1
2017-May-24 06:56N 38°57' W 074°53'0 0.5
2017-May-24 06:24N 38°57' W 074°53'4 3.0
2017-May-24 05:03N 38°58' W 074°48'1 5.5
2017-May-24 04:55N 38°59' W 074°47'2 5.5
2017-May-24 04:30N 39°00' W 074°45'6 4.7
2017-May-24 03:19N 39°06' W 074°42'0 0.4
2017-May-24 03:01N 39°05' W 074°42'0 0.3
2017-May-24 02:25N 39°06' W 074°42'0 0.2
2017-May-24 01:43N 39°06' W 074°42'0 0.1
2017-May-24 01:30N 39°06' W 074°42'12 0.8
2017-May-23 10:32N 38°56' W 074°51'2 0.7
2017-May-23 08:12N 38°57' W 074°53'0 0.2
2017-May-23 07:57N 38°57' W 074°52'  
2017-May-20 05:02N 38°57' W 074°53'0 0.0
2017-May-20 04:57N 38°57' W 074°53'0 0.0
2017-May-20 04:30N 38°57' W 074°53'0 0.0
2017-May-20 04:00N 38°57' W 074°53'0 0.0
2017-May-20 03:28N 38°57' W 074°53'0 0.0
2017-May-20 01:05N 38°57' W 074°53'0 0.0
2017-May-20 01:00N 38°57' W 074°53'0 0.0
2017-May-20 00:30N 38°57' W 074°53'0 0.0
2017-May-19 23:53N 38°57' W 074°53'1 0.1
2017-May-19 12:20N 38°57' W 074°52'0 1.1
2017-May-19 12:00N 38°57' W 074°53'0 0.4
2017-May-19 11:21N 38°57' W 074°53'17 1.0
2017-May-18 18:51N 39°06' W 075°12'1 3.1
2017-May-18 18:27N 39°07' W 075°13'1 3.2
2017-May-18 17:59N 39°08' W 075°14'2 3.2
2017-May-18 17:30N 39°09' W 075°15'2 3.1
2017-May-18 17:00N 39°10' W 075°16'1 2.9
2017-May-18 16:30N 39°12' W 075°17'2 3.9
2017-May-18 16:00N 39°13' W 075°18'2 4.9
2017-May-18 15:30N 39°15' W 075°20'3 5.8
2017-May-18 15:00N 39°17' W 075°23'7 6.6
2017-May-18 14:00N 39°22' W 075°28'3 6.6
2017-May-18 13:30N 39°25' W 075°31'3 6.3
2017-May-18 13:00N 39°27' W 075°34'3 6.0
2017-May-18 12:30N 39°30' W 075°34'3 5.9
2017-May-18 12:00N 39°33' W 075°33'3 5.1
2017-May-18 11:30N 39°36' W 075°34'2 4.6
2017-May-18 11:00N 39°38' W 075°35'2 4.0
2017-May-18 10:30N 39°39' W 075°33'2 3.4
2017-May-18 10:00N 39°41' W 075°32'1 2.7
2017-May-18 09:30N 39°42' W 075°31'1 2.5
2017-May-18 09:00N 39°43' W 075°30'1 2.3
2017-May-18 08:30N 39°44' W 075°30'1 2.0
2017-May-18 07:56N 39°45' W 075°29'1 2.0
2017-May-18 07:30N 39°46' W 075°29'1 2.2
2017-May-18 07:00N 39°47' W 075°28'1 2.5
2017-May-18 06:30N 39°48' W 075°27'2 3.0
2017-May-18 06:00N 39°48' W 075°25'2 3.6
2017-May-18 05:31N 39°49' W 075°23'2 4.5
2017-May-18 05:00N 39°51' W 075°21'2 4.3
2017-May-18 04:30N 39°51' W 075°18'2 4.2
2017-May-18 04:00N 39°51' W 075°15'0 0.3
2017-May-18 03:30N 39°51' W 075°15'0 0.0
2017-May-18 03:00N 39°51' W 075°15'0 0.0
2017-May-18 02:30N 39°51' W 075°15'0 0.0
2017-May-18 02:00N 39°51' W 075°15'0 0.0
2017-May-18 01:30N 39°51' W 075°15'0 0.0
2017-May-18 01:00N 39°51' W 075°15'0 0.0
2017-May-18 00:30N 39°51' W 075°15'0 0.0
2017-May-18 00:00N 39°51' W 075°15'0 0.0
2017-May-17 23:30N 39°51' W 075°15'0 0.0
2017-May-17 23:00N 39°51' W 075°15'0 0.0
2017-May-17 22:30N 39°51' W 075°15'0 0.0
2017-May-17 22:00N 39°51' W 075°15'0 0.0
2017-May-17 21:30N 39°51' W 075°15'0 0.0
2017-May-17 21:00N 39°51' W 075°15'0 0.0
2017-May-17 20:30N 39°51' W 075°15'0 0.0
2017-May-17 20:00N 39°51' W 075°15'0 0.0
2017-May-17 19:30N 39°51' W 075°15'0 0.0
2017-May-17 18:58N 39°51' W 075°15'0 0.0
2017-May-17 18:30N 39°51' W 075°15'0 0.0
2017-May-17 18:00N 39°51' W 075°15'0 0.1
2017-May-17 17:30N 39°51' W 075°15'1 1.5
2017-May-17 17:00N 39°52' W 075°14'1 1.3
2017-May-17 16:30N 39°51' W 075°15'0 0.7
2017-May-17 16:00N 39°51' W 075°15'1 2.5
2017-May-17 15:30N 39°52' W 075°13'1 1.7
2017-May-17 15:00N 39°51' W 075°14'1 1.9
2017-May-17 14:30N 39°51' W 075°15'2 2.2
2017-May-17 13:30N 39°51' W 075°18'2 3.0
2017-May-17 13:01N 39°51' W 075°20'1 2.8
2017-May-17 12:30N 39°50' W 075°22'1 2.3
2017-May-17 12:00N 39°49' W 075°23'1 2.7
2017-May-17 11:30N 39°49' W 075°24'2 3.6
2017-May-17 11:01N 39°48' W 075°26'2 3.4
2017-May-17 10:30N 39°46' W 075°28'2 3.2
2017-May-17 10:00N 39°45' W 075°29'2 4.6
2017-May-17 09:31N 39°43' W 075°30'3 5.1
2017-May-17 09:00N 39°41' W 075°31'3 5.1
2017-May-17 08:30N 39°39' W 075°33'3 5.1
2017-May-17 08:00N 39°36' W 075°34'3 6.5
2017-May-17 07:30N 39°33' W 075°33'4 7.0
2017-May-17 07:00N 39°30' W 075°33'3 6.6
2017-May-17 06:30N 39°27' W 075°32'3 6.8
2017-May-17 06:00N 39°24' W 075°29'3 6.6
2017-May-17 05:30N 39°22' W 075°27'3 6.6
2017-May-17 05:00N 39°19' W 075°24'3 6.5
2017-May-17 04:30N 39°17' W 075°21'3 5.9
2017-May-17 04:00N 39°14' W 075°19'3 5.7
2017-May-17 03:29N 39°12' W 075°17'3 5.8
2017-May-17 02:59N 39°09' W 075°15'5 5.8
2017-May-17 02:03N 39°05' W 075°11'17 1.2
2017-May-16 12:23N 38°56' W 074°52'1 1.5
2017-May-16 11:59N 38°57' W 074°52'1 0.6
2017-May-16 10:47N 38°57' W 074°52'1 0.0
2017-May-14 13:39N 38°57' W 074°53'  

Dump ship's entire track history